Time;durP1;ratioP1;P1;durP2;ratioP2;P2;SDS_P1;SDS_P2;PMS_P1;PMS_P2;Temp;Humidity;BMP_temperature;BMP_pressure;BME280_temperature;BME280_humidity;BME280_pressure;Samples;Min_cycle;Max_cycle;Signal;HPM_P1;HPM_P2
2021/04/03 00:00:21;;;;;;;6.97;2.75;;;;;;;9.48;33.22;102086.06;3622208;39;20093;-74
2021/04/03 00:03:02;;;;;;;7.30;3.08;;;;;;;9.45;32.84;102078.97;3614221;39;20079;-74
2021/04/03 00:05:31;;;;;;;7.43;2.70;;;;;;;9.47;32.78;102085.19;3615425;39;20086;-74
2021/04/03 00:08:03;;;;;;;6.70;2.95;;;;;;;9.47;32.71;102087.03;3607881;39;20103;-74
2021/04/03 00:10:37;;;;;;;8.43;2.75;;;;;;;9.47;32.72;102078.84;3615734;39;20086;-74
2021/04/03 00:13:05;;;;;;;6.35;2.45;;;;;;;9.43;32.58;102083.63;3615251;39;20442;-74
2021/04/03 00:15:34;;;;;;;6.47;2.63;;;;;;;9.43;32.63;102080.03;3615816;39;20070;-74
2021/04/03 00:18:01;;;;;;;5.03;2.35;;;;;;;9.39;32.68;102079.31;3605098;39;20087;-74
2021/04/03 00:20:32;;;;;;;5.90;2.08;;;;;;;9.39;32.42;102080.19;3614873;39;20179;-73
2021/04/03 00:22:59;;;;;;;7.43;2.30;;;;;;;9.36;32.50;102079.53;3615542;39;20524;-74
2021/04/03 00:25:27;;;;;;;7.35;2.50;;;;;;;9.33;32.74;102071.50;3624174;39;20137;-74
2021/04/03 00:27:55;;;;;;;5.38;2.72;;;;;;;9.30;32.44;102074.47;3615141;39;20108;-74
2021/04/03 00:30:23;;;;;;;6.65;2.35;;;;;;;9.26;32.38;102071.03;3615148;39;20085;-74
2021/04/03 00:32:52;;;;;;;8.85;2.58;;;;;;;9.24;32.44;102070.22;3621250;39;20072;-73
2021/04/03 00:35:21;;;;;;;7.03;2.33;;;;;;;9.21;32.38;102069.56;3607342;39;20167;-74
2021/04/03 00:37:49;;;;;;;6.78;2.60;;;;;;;9.17;32.37;102065.25;3614958;39;20162;-74
2021/04/03 00:40:19;;;;;;;9.07;2.47;;;;;;;9.15;32.70;102069.91;3614379;39;20163;-74
2021/04/03 00:42:49;;;;;;;6.63;2.30;;;;;;;9.13;32.69;102061.84;3616510;39;20180;-74
2021/04/03 00:45:19;;;;;;;7.65;2.55;;;;;;;9.11;32.84;102063.78;3614748;39;20071;-73
2021/04/03 00:47:46;;;;;;;8.13;2.42;;;;;;;9.09;32.67;102062.97;3620425;39;20089;-74
2021/04/03 00:50:16;;;;;;;8.32;2.47;;;;;;;9.10;32.74;102066.59;3612557;39;20079;-74
2021/04/03 00:52:44;;;;;;;5.97;2.40;;;;;;;9.08;32.85;102074.88;3621415;39;20082;-74
2021/04/03 00:55:15;;;;;;;8.63;2.47;;;;;;;9.08;32.86;102061.22;3616569;39;20417;-74
2021/04/03 00:57:44;;;;;;;5.13;2.58;;;;;;;9.07;32.78;102066.78;3608091;39;20426;-74
2021/04/03 01:00:14;;;;;;;4.97;2.30;;;;;;;9.06;33.00;102060.44;3617133;39;20143;-74
2021/04/03 01:02:46;;;;;;;6.50;2.60;;;;;;;9.04;32.96;102059.66;3615296;39;20095;-74
2021/04/03 01:05:17;;;;;;;7.60;2.92;;;;;;;9.05;33.20;102057.81;3606608;39;20081;-74
2021/04/03 01:07:48;;;;;;;8.10;2.58;;;;;;;9.01;32.88;102046.19;3617604;39;20156;-74
2021/04/03 01:10:22;;;;;;;7.47;2.42;;;;;;;9.00;33.10;102056.22;3606409;39;20072;-74
2021/04/03 01:13:01;;;;;;;8.18;2.33;;;;;;;9.03;33.44;102047.00;3617157;39;20067;-74
2021/04/03 01:15:39;;;;;;;7.63;2.50;;;;;;;9.02;33.25;102047.97;3616190;39;20094;-74
2021/04/03 01:18:17;;;;;;;6.45;2.10;;;;;;;9.01;33.23;102047.09;3614037;39;20092;-74
2021/04/03 01:21:05;;;;;;;6.35;2.15;;;;;;;9.01;33.30;102048.94;3618093;39;20082;-74
2021/04/03 01:24:08;;;;;;;7.50;2.47;;;;;;;8.98;33.23;102049.97;3622115;39;20512;-74
2021/04/03 01:27:07;;;;;;;7.03;2.28;;;;;;;8.96;33.12;102048.34;3622394;39;20425;-74
2021/04/03 01:30:05;;;;;;;5.32;1.92;;;;;;;8.96;33.17;102057.41;3606058;39;20095;-73
2021/04/03 01:32:48;;;;;;;7.85;2.38;;;;;;;8.95;33.16;102054.78;3614258;39;20176;-74
2021/04/03 01:35:22;;;;;;;5.68;1.80;;;;;;;8.96;33.18;102062.00;3606403;39;20103;-74
2021/04/03 01:37:54;;;;;;;;;;;;;;;8.68;34.14;102072.78;3612480;39;20180;-74
2021/04/03 01:40:24;;;;;;;6.13;2.00;;;;;;;8.79;33.31;102067.56;3606045;39;19927;-74
2021/04/03 01:43:02;;;;;;;5.05;1.50;;;;;;;8.82;33.26;102072.81;3603147;39;20390;-74
2021/04/03 01:45:32;;;;;;;4.00;1.67;;;;;;;8.75;32.85;102077.78;3606185;39;20323;-74
2021/04/03 01:48:02;;;;;;;4.60;1.80;;;;;;;8.67;32.75;102082.81;3618140;39;20071;-74
2021/04/03 01:50:33;;;;;;;3.05;1.25;;;;;;;8.54;32.81;102088.13;3605991;39;20176;-74
2021/04/03 01:53:02;;;;;;;6.00;1.50;;;;;;;8.43;32.74;102084.22;3610364;39;20435;-74
2021/04/03 01:55:31;;;;;;;5.25;1.25;;;;;;;8.35;33.02;102072.88;3612061;39;20075;-75
2021/04/03 01:58:01;;;;;;;6.97;1.50;;;;;;;8.25;33.22;102076.13;3613716;39;20075;-75
2021/04/03 02:00:31;;;;;;;6.07;1.45;;;;;;;8.16;33.12;102071.19;3615763;39;20149;-75
2021/04/03 02:03:04;;;;;;;4.93;1.35;;;;;;;8.10;33.27;102063.38;3607646;39;20071;-72
2021/04/03 02:05:33;;;;;;;3.50;1.27;;;;;;;8.04;33.25;102066.47;3613096;39;20102;-74
2021/04/03 02:08:17;;;;;;;5.47;1.20;;;;;;;7.99;33.60;102068.53;3615228;39;20163;-74
2021/04/03 02:10:58;;;;;;;5.78;1.50;;;;;;;7.95;33.48;102068.81;3606758;39;20158;-74
2021/04/03 02:13:26;;;;;;;3.15;1.42;;;;;;;7.93;33.71;102068.00;3615758;39;20075;-74
2021/04/03 02:16:00;;;;;;;3.17;1.27;;;;;;;7.94;34.15;102069.78;3611220;39;20099;-74
2021/04/03 02:18:29;;;;;;;3.55;1.25;;;;;;;7.92;34.14;102067.13;3620020;39;20068;-74
2021/04/03 02:20:58;;;;;;;6.10;1.52;;;;;;;7.94;34.26;102077.94;3615431;39;20075;-73
2021/04/03 02:23:27;;;;;;;4.60;1.48;;;;;;;7.94;34.10;102080.69;3618708;39;20154;-74
2021/04/03 02:25:56;;;;;;;4.95;1.80;;;;;;;7.94;34.13;102076.09;3611164;39;20071;-74
2021/04/03 02:28:24;;;;;;;4.03;1.50;;;;;;;7.98;34.26;102082.28;3614396;39;20086;-74
2021/04/03 02:30:53;;;;;;;5.10;1.30;;;;;;;7.98;34.19;102079.56;3615629;39;20110;-74
2021/04/03 02:33:23;;;;;;;4.97;1.77;;;;;;;8.00;34.44;102081.22;3618750;39;20102;-74
2021/04/03 02:35:50;;;;;;;4.80;1.38;;;;;;;8.01;34.27;102082.97;3606245;39;20106;-74
2021/04/03 02:38:18;;;;;;;5.03;1.40;;;;;;;8.03;34.29;102085.63;3611193;39;20086;-74
2021/04/03 02:40:55;;;;;;;5.82;1.67;;;;;;;8.05;34.31;102086.41;3618210;39;20162;-74
2021/04/03 02:43:27;;;;;;;4.45;1.60;;;;;;;8.09;34.67;102086.13;3621841;39;20075;-74
2021/04/03 02:46:02;;;;;;;5.95;1.50;;;;;;;8.10;34.32;102078.84;3605947;39;20082;-74
2021/04/03 02:48:34;;;;;;;5.00;1.63;;;;;;;8.11;34.21;102084.22;3623980;39;20327;-74
2021/04/03 02:51:04;;;;;;;;;;;;;;;7.88;34.52;102082.78;3615933;39;20170;-74
2021/04/03 02:53:34;;;;;;;3.95;1.20;;;;;;;8.10;34.07;102087.03;3609659;39;19927;-73
2021/04/03 02:56:11;;;;;;;5.63;1.70;;;;;;;8.16;33.91;102083.94;3609798;39;20095;-73
2021/04/03 02:58:41;;;;;;;3.78;1.65;;;;;;;8.16;33.80;102090.28;3617956;39;20526;-74
2021/04/03 03:01:14;;;;;;;;;;;;;;;7.93;34.27;102082.53;3615034;39;20323;-73
2021/04/03 03:03:52;;;;;;;5.70;1.42;;;;;;;8.16;33.81;102089.38;3608069;39;20002;-74
2021/04/03 03:06:20;;;;;;;4.95;1.30;;;;;;;8.17;33.48;102086.59;3605980;39;20072;-74
2021/04/03 03:08:50;;;;;;;4.43;1.40;;;;;;;8.17;33.31;102083.84;3608291;39;20087;-74
2021/04/03 03:11:21;;;;;;;5.53;1.70;;;;;;;8.16;33.40;102083.94;3606229;39;20078;-74
2021/04/03 03:13:50;;;;;;;6.22;1.67;;;;;;;8.15;33.29;102079.44;3616583;39;20079;-74
2021/04/03 03:16:21;;;;;;;8.20;1.70;;;;;;;8.13;33.06;102084.13;3606069;39;20078;-74
2021/04/03 03:18:51;;;;;;;4.32;1.42;;;;;;;8.12;33.33;102076.91;3606902;39;20166;-73
2021/04/03 03:21:20;;;;;;;7.30;1.58;;;;;;;8.09;33.24;102083.41;3597501;39;20094;-73
2021/04/03 03:23:49;;;;;;;6.32;1.77;;;;;;;8.09;33.36;102087.97;3610410;39;20086;-73
2021/04/03 03:26:18;;;;;;;5.32;1.30;;;;;;;8.10;33.33;102084.31;3610922;39;20090;-73
2021/04/03 03:28:49;;;;;;;7.82;1.48;;;;;;;8.08;33.32;102087.09;3612531;39;20071;-73
2021/04/03 03:31:21;;;;;;;3.95;1.20;;;;;;;8.06;33.52;102089.06;3614387;39;20073;-74
2021/04/03 03:33:51;;;;;;;4.90;1.52;;;;;;;8.09;33.51;102091.59;3608508;39;20314;-74
2021/04/03 03:36:18;;;;;;;6.50;1.55;;;;;;;8.10;33.06;102087.91;3620048;39;20418;-74
2021/04/03 03:38:49;;;;;;;4.40;1.27;;;;;;;8.11;33.31;102096.97;3614041;39;20067;-74
2021/04/03 03:41:21;;;;;;;6.00;1.50;;;;;;;8.13;33.16;102097.75;3614497;39;20195;-74
2021/04/03 03:43:48;;;;;;;4.78;1.27;;;;;;;8.12;33.22;102105.06;3616613;39;20086;-74
2021/04/03 03:46:16;;;;;;;6.80;1.60;;;;;;;8.15;33.17;102095.81;3614611;39;20087;-74
2021/04/03 03:48:45;;;;;;;3.88;1.10;;;;;;;8.15;33.21;102095.81;3605946;39;20417;-74
2021/04/03 03:51:13;;;;;;;4.80;1.38;;;;;;;8.15;33.09;102095.81;3620194;39;20158;-74
2021/04/03 03:53:52;;;;;;;7.00;1.50;;;;;;;8.14;33.32;102094.97;3609279;39;20090;-74
2021/04/03 03:56:20;;;;;;;5.38;1.40;;;;;;;8.16;33.12;102101.19;3619840;39;20162;-74
2021/04/03 03:58:49;;;;;;;5.50;1.40;;;;;;;8.16;33.26;102106.63;3621854;39;20176;-74
2021/04/03 04:01:17;;;;;;;8.32;1.67;;;;;;;8.19;33.16;102105.59;3613735;39;20162;-74
2021/04/03 04:03:46;;;;;;;6.88;1.90;;;;;;;8.19;33.04;102100.13;3605224;39;20426;-75
2021/04/03 04:06:18;;;;;;;5.30;1.40;;;;;;;8.22;33.11;102108.16;3615586;39;20059;-74
2021/04/03 04:08:50;;;;;;;3.90;1.50;;;;;;;8.21;33.02;102106.38;3614294;39;20179;-74
2021/04/03 04:11:20;;;;;;;5.00;1.50;;;;;;;8.21;32.98;102114.56;3605183;39;20402;-74
2021/04/03 04:13:53;;;;;;;4.90;1.30;;;;;;;8.23;32.96;102109.88;3614789;39;20565;-74
2021/04/03 04:16:28;;;;;;;4.40;1.20;;;;;;;8.22;32.88;102108.16;3606499;39;20089;-75
2021/04/03 04:18:58;;;;;;;5.53;1.40;;;;;;;8.24;33.04;102106.19;3601195;39;20320;-74
2021/04/03 04:21:26;;;;;;;5.63;1.52;;;;;;;8.24;33.01;102104.34;3619037;39;20071;-74
2021/04/03 04:23:54;;;;;;;5.53;1.70;;;;;;;8.25;32.96;102105.22;3609528;39;20075;-74
2021/04/03 04:26:24;;;;;;;5.97;1.42;;;;;;;8.25;32.86;102107.97;3615282;39;20407;-74
2021/04/03 04:28:55;;;;;;;7.63;1.80;;;;;;;8.26;32.94;102113.31;3605792;39;20427;-74
2021/04/03 04:31:28;;;;;;;6.13;1.75;;;;;;;8.25;33.02;102113.41;3611294;39;20381;-74
2021/04/03 04:34:05;;;;;;;5.75;1.48;;;;;;;8.23;32.90;102118.94;3615827;39;20411;-75
2021/04/03 04:36:35;;;;;;;8.50;1.88;;;;;;;8.23;32.87;102126.22;3610441;39;20100;-74
2021/04/03 04:39:06;;;;;;;4.65;1.40;;;;;;;8.19;32.69;102141.91;3604892;39;20073;-74
2021/04/03 04:41:38;;;;;;;2.80;1.40;;;;;;;8.19;32.86;102141.91;3615110;39;20075;-74
2021/04/03 04:44:06;;;;;;;5.47;1.55;;;;;;;8.18;32.86;102142.88;3606204;39;20421;-74
2021/04/03 04:46:35;;;;;;;4.80;1.85;;;;;;;8.18;32.91;102159.22;3621875;39;20153;-74
2021/04/03 04:49:03;;;;;;;5.35;1.50;;;;;;;8.16;33.13;102158.41;3613410;39;20475;-74
2021/04/03 04:51:33;;;;;;;6.05;1.42;;;;;;;8.16;33.01;102158.41;3615727;39;20091;-74
2021/04/03 04:54:13;;;;;;;4.68;1.25;;;;;;;8.18;33.28;102155.63;3609970;39;20087;-74
2021/04/03 04:56:45;;;;;;;5.40;1.65;;;;;;;8.15;33.06;102147.59;3619631;39;20073;-74
2021/04/03 04:59:17;;;;;;;3.70;1.63;;;;;;;8.15;32.98;102151.19;3614572;39;20074;-74
2021/04/03 05:01:52;;;;;;;6.43;1.35;;;;;;;8.16;33.24;102146.63;3614841;39;20187;-74
2021/04/03 05:04:19;;;;;;;6.85;1.40;;;;;;;8.18;33.33;102156.50;3624887;39;20079;-74
2021/04/03 05:06:47;;;;;;;7.53;1.67;;;;;;;8.19;33.02;102157.38;3611808;39;20172;-74
2021/04/03 05:09:15;;;;;;;5.07;1.40;;;;;;;8.20;32.91;102168.19;3615998;39;20408;-74
2021/04/03 05:11:42;;;;;;;9.15;1.67;;;;;;;8.21;32.96;102169.09;3623241;39;20154;-74
2021/04/03 05:14:10;;;;;;;5.88;1.58;;;;;;;8.20;32.99;102168.19;3619692;39;20075;-74
2021/04/03 05:16:37;;;;;;;6.07;1.70;;;;;;;8.21;32.74;102175.41;3628761;39;20094;-74
2021/04/03 05:19:04;;;;;;;7.13;1.90;;;;;;;8.18;32.90;102164.66;3618038;39;20384;-74
2021/04/03 05:21:32;;;;;;;5.55;1.60;;;;;;;8.17;33.04;102181.09;3614253;39;20075;-74
2021/04/03 05:23:59;;;;;;;4.18;1.50;;;;;;;8.15;32.98;102183.91;3613931;39;20102;-74
2021/04/03 05:26:27;;;;;;;5.10;1.70;;;;;;;8.13;33.19;102184.97;3617334;39;20327;-74
2021/04/03 05:28:55;;;;;;;4.95;1.52;;;;;;;8.10;33.20;102194.19;3620980;39;20125;-74
2021/04/03 05:31:27;;;;;;;4.65;1.23;;;;;;;8.06;33.11;102191.75;3615491;39;20157;-73
2021/04/03 05:33:55;;;;;;;6.30;1.55;;;;;;;8.05;33.33;102184.53;3617015;39;20075;-74
2021/04/03 05:36:22;;;;;;;5.20;1.25;;;;;;;8.06;33.09;102187.16;3616430;39;20093;-74
2021/04/03 05:38:49;;;;;;;4.50;1.33;;;;;;;8.07;33.22;102185.28;3617602;39;20071;-74
2021/04/03 05:41:17;;;;;;;5.20;1.67;;;;;;;8.07;33.40;102185.28;3618899;39;20158;-73
2021/04/03 05:43:47;;;;;;;5.35;1.60;;;;;;;8.09;33.44;102186.09;3611518;39;20071;-73
2021/04/03 05:46:18;;;;;;;5.50;1.60;;;;;;;8.10;33.64;102187.88;3621316;39;20155;-73
2021/04/03 05:48:46;;;;;;;4.95;1.60;;;;;;;8.11;33.54;102193.22;3619477;39;20306;-74
2021/04/03 05:51:15;;;;;;;5.25;1.50;;;;;;;8.14;33.74;102206.72;3620888;39;20094;-75
2021/04/03 05:53:42;;;;;;;8.48;1.60;;;;;;;8.15;33.93;102202.97;3618614;39;20072;-74
2021/04/03 05:56:10;;;;;;;7.63;1.60;;;;;;;8.18;33.86;102215.56;3608440;39;20075;-74
2021/04/03 05:58:37;;;;;;;6.35;1.90;;;;;;;8.20;33.64;102206.34;3617393;39;20166;-74
2021/04/03 06:01:06;;;;;;;7.47;1.70;;;;;;;8.22;33.72;102211.72;3625768;39;20081;-74
2021/04/03 06:03:34;;;;;;;5.22;1.60;;;;;;;8.21;33.64;102216.31;3620851;39;20067;-74
2021/04/03 06:06:03;;;;;;;7.20;1.80;;;;;;;8.21;33.65;102215.41;3624890;39;20063;-73
2021/04/03 06:08:31;;;;;;;6.30;2.08;;;;;;;8.21;33.66;102221.75;3623935;39;20087;-74
2021/04/03 06:11:16;;;;;;;6.40;1.80;;;;;;;8.23;34.10;102221.66;3621718;39;20187;-73
2021/04/03 06:14:02;;;;;;;5.35;1.83;;;;;;;8.20;33.63;102238.19;3622660;39;20542;-74
2021/04/03 06:16:32;;;;;;;5.50;1.88;;;;;;;8.20;33.75;102238.19;3622522;39;20072;-74
2021/04/03 06:19:07;;;;;;;6.10;1.70;;;;;;;8.22;34.07;102241.72;3623009;39;20410;-74
2021/04/03 06:21:35;;;;;;;5.85;1.58;;;;;;;8.19;33.73;102240.03;3623278;39;20395;-74
2021/04/03 06:24:03;;;;;;;6.45;1.80;;;;;;;8.19;33.98;102240.03;3618781;39;20399;-74
2021/04/03 06:26:31;;;;;;;7.68;1.90;;;;;;;8.20;33.77;102244.53;3620494;39;20423;-74
2021/04/03 06:29:26;;;;;;;5.80;1.90;;;;;;;8.21;34.48;102246.28;3611626;39;20114;-74
2021/04/03 06:31:56;;;;;;;7.07;1.67;;;;;;;8.24;34.03;102250.66;3612672;39;20086;-74
2021/04/03 06:34:29;;;;;;;6.88;2.03;;;;;;;8.29;34.09;102254.03;3618767;39;20071;-75
2021/04/03 06:36:56;;;;;;;7.45;1.92;;;;;;;8.30;34.12;102257.66;3625932;39;20067;-74
2021/04/03 06:39:25;;;;;;;6.20;1.70;;;;;;;8.34;34.22;102251.06;3616959;39;20102;-74
2021/04/03 06:41:52;;;;;;;10.75;2.00;;;;;;;8.37;33.96;102261.81;3617639;39;20086;-74
2021/04/03 06:44:19;;;;;;;7.30;1.70;;;;;;;8.41;33.99;102264.25;3608005;39;20180;-74
2021/04/03 06:46:50;;;;;;;6.93;1.70;;;;;;;8.46;34.24;102274.97;3601659;39;20336;-74
2021/04/03 06:49:20;;;;;;;7.57;1.80;;;;;;;8.52;34.18;102274.63;3616861;39;20079;-74
2021/04/03 06:51:47;;;;;;;7.40;1.90;;;;;;;8.56;34.44;102276.19;3607567;39;20313;-74
2021/04/03 06:54:15;;;;;;;6.70;2.00;;;;;;;8.64;34.38;102271.22;3622128;39;20173;-74
2021/04/03 06:56:44;;;;;;;6.60;1.60;;;;;;;8.73;34.23;102269.81;3621050;39;20111;-74
2021/04/03 06:59:12;;;;;;;8.32;2.05;;;;;;;8.81;34.55;102275.72;3619166;39;20086;-75
2021/04/03 07:01:48;;;;;;;7.97;2.00;;;;;;;8.94;34.77;102283.13;3622211;39;20106;-74
2021/04/03 07:04:26;;;;;;;6.88;1.67;;;;;;;9.03;34.77;102281.72;3604840;39;20083;-74
2021/04/03 07:06:54;;;;;;;7.72;2.05;;;;;;;9.12;34.58;102285.78;3605900;39;20085;-74
2021/04/03 07:09:22;;;;;;;7.93;2.10;;;;;;;9.20;34.51;102289.81;3617363;39;20083;-74
2021/04/03 07:11:51;;;;;;;8.13;2.22;;;;;;;9.29;34.40;102292.03;3615592;39;20075;-74
2021/04/03 07:14:19;;;;;;;6.78;1.90;;;;;;;9.37;34.84;102286.13;3618593;39;20079;-74
2021/04/03 07:16:48;;;;;;;10.02;2.38;;;;;;;9.45;34.67;102288.41;3615795;39;20158;-75
2021/04/03 07:19:17;;;;;;;7.63;1.80;;;;;;;9.55;34.53;102289.59;3608953;39;20071;-74
2021/04/03 07:21:45;;;;;;;8.90;2.65;;;;;;;9.64;34.46;102292.66;3615543;39;20083;-75
2021/04/03 07:24:15;;;;;;;7.82;2.03;;;;;;;9.76;34.59;102296.53;3622991;39;20094;-74
2021/04/03 07:26:45;;;;;;;6.20;1.90;;;;;;;9.89;34.47;102293.94;3620098;39;20075;-74
2021/04/03 07:29:44;;;;;;;7.82;2.05;;;;;;;10.05;34.30;102300.22;3616144;39;20075;-74
2021/04/03 07:32:38;;;;;;;6.53;2.05;;;;;;;10.20;34.14;102298.44;3612709;39;20303;-74
2021/04/03 07:35:29;;;;;;;6.45;1.90;;;;;;;10.33;34.09;102296.69;3619493;39;20507;-75
2021/04/03 07:38:07;;;;;;;5.88;1.65;;;;;;;10.51;33.86;102295.53;3603988;39;20071;-75
2021/04/03 07:40:43;;;;;;;6.50;2.30;;;;;;;10.62;33.41;102300.31;3615214;39;20079;-75
2021/04/03 07:43:40;;;;;;;6.88;2.10;;;;;;;10.71;32.86;102303.31;3614701;39;20099;-74
2021/04/03 07:46:14;;;;;;;7.65;2.17;;;;;;;10.79;32.93;102306.44;3607175;39;20077;-74
2021/04/03 07:48:46;;;;;;;6.72;2.05;;;;;;;10.85;32.26;102305.22;3606061;39;20091;-74
2021/04/03 07:51:16;;;;;;;6.50;1.92;;;;;;;10.87;32.26;102309.59;3622185;39;20079;-75
2021/04/03 07:53:46;;;;;;;5.85;1.88;;;;;;;10.90;32.05;102309.41;3620147;39;20087;-74
2021/04/03 07:56:15;;;;;;;8.70;2.65;;;;;;;10.89;31.70;102324.06;3623579;39;20110;-74
2021/04/03 07:58:48;;;;;;;4.65;1.80;;;;;;;10.87;31.46;102314.19;3624118;39;20079;-75
2021/04/03 08:01:26;;;;;;;7.45;2.60;;;;;;;10.82;31.58;102319.06;3615314;39;20076;-75
2021/04/03 08:03:59;;;;;;;7.22;1.85;;;;;;;10.78;31.75;102318.38;3621806;39;20102;-74
2021/04/03 08:06:33;;;;;;;6.85;1.80;;;;;;;10.77;31.57;102318.50;3623274;39;20398;-75
2021/04/03 08:09:04;;;;;;;8.82;2.40;;;;;;;10.72;31.67;102321.50;3620808;39;20395;-75
2021/04/03 08:11:32;;;;;;;6.03;1.77;;;;;;;10.71;31.57;102329.81;3615685;39;20079;-74
2021/04/03 08:14:00;;;;;;;7.30;2.25;;;;;;;10.67;31.63;102320.06;3621292;39;20085;-74
2021/04/03 08:16:29;;;;;;;7.28;2.72;;;;;;;10.68;31.42;102332.75;3622934;39;20067;-75
2021/04/03 08:18:59;;;;;;;7.63;2.72;;;;;;;10.66;31.15;102342.91;3617296;39;20067;-75
2021/04/03 08:21:29;;;;;;;8.30;3.08;;;;;;;10.63;30.94;102338.50;3616030;39;20187;-75
2021/04/03 08:23:58;;;;;;;8.77;2.90;;;;;;;10.60;30.74;102337.84;3619694;39;20101;-74
2021/04/03 08:26:35;;;;;;;6.72;2.42;;;;;;;10.53;30.33;102346.41;3622169;39;20076;-74
2021/04/03 08:29:03;;;;;;;8.07;2.30;;;;;;;10.44;30.76;102349.75;3619143;39;20391;-76
2021/04/03 08:31:33;;;;;;;10.30;2.65;;;;;;;10.40;30.68;102350.91;3618794;39;20067;-75
2021/04/03 08:34:01;;;;;;;8.38;3.22;;;;;;;10.32;30.84;102353.22;3614533;39;20081;-75
2021/04/03 08:36:34;;;;;;;8.52;2.70;;;;;;;10.26;30.84;102345.41;3621335;39;20094;-75
2021/04/03 08:39:04;;;;;;;7.80;2.50;;;;;;;10.20;31.08;102356.75;3621147;39;20391;-74
2021/04/03 08:41:33;;;;;;;7.28;2.83;;;;;;;10.21;31.16;102346.66;3613728;39;20075;-74
2021/04/03 08:44:01;;;;;;;8.07;2.55;;;;;;;10.18;31.03;102355.06;3616398;39;20087;-75
2021/04/03 08:46:29;;;;;;;7.47;2.75;;;;;;;10.16;31.08;102352.41;3624934;39;20075;-75
2021/04/03 08:48:58;;;;;;;6.65;2.15;;;;;;;10.17;31.04;102364.22;3623502;39;20081;-75
2021/04/03 08:51:26;;;;;;;7.68;2.83;;;;;;;10.17;31.32;102361.50;3613796;39;20183;-75
2021/04/03 08:53:55;;;;;;;9.27;2.88;;;;;;;10.14;31.25;102357.97;3606779;39;20082;-75
2021/04/03 08:56:26;;;;;;;6.07;2.45;;;;;;;10.18;31.06;102363.25;3623416;39;20427;-75
2021/04/03 08:58:55;;;;;;;7.50;2.92;;;;;;;10.18;31.14;102364.16;3615840;39;20072;-75
2021/04/03 09:01:23;;;;;;;5.80;2.17;;;;;;;10.21;31.33;102357.59;3614460;39;20071;-74
2021/04/03 09:03:52;;;;;;;7.85;2.08;;;;;;;10.22;31.22;102352.03;3615296;39;20398;-75
2021/04/03 09:06:41;;;;;;;7.78;2.30;;;;;;;10.29;31.13;102355.28;3621669;39;20091;-75
2021/04/03 09:09:12;;;;;;;8.43;3.28;;;;;;;10.30;31.45;102359.75;3614832;39;20329;-75
2021/04/03 09:11:39;;;;;;;6.07;2.58;;;;;;;10.32;31.25;102355.09;3619261;39;20114;-75
2021/04/03 09:14:07;;;;;;;8.55;2.67;;;;;;;10.35;31.20;102360.38;3622273;39;20086;-75
2021/04/03 09:16:37;;;;;;;7.10;2.20;;;;;;;10.41;31.15;102362.72;3610349;39;20527;-75
2021/04/03 09:19:05;;;;;;;5.00;2.00;;;;;;;10.45;30.87;102356.09;3620353;39;20094;-75
2021/04/03 09:21:43;;;;;;;4.55;1.75;;;;;;;10.50;31.26;102360.31;3617230;39;20114;-76
2021/04/03 09:24:10;;;;;;;6.63;2.13;;;;;;;10.56;31.14;102359.03;3619630;39;20167;-75
2021/04/03 09:26:37;;;;;;;5.47;2.10;;;;;;;10.63;31.27;102363.13;3625395;39;20115;-76
2021/04/03 09:29:08;;;;;;;6.28;2.30;;;;;;;10.72;31.22;102359.81;3606257;39;20079;-76
2021/04/03 09:31:41;;;;;;;5.70;2.47;;;;;;;10.81;30.93;102359.25;3625767;39;20082;-75
2021/04/03 09:34:10;;;;;;;6.07;2.10;;;;;;;10.90;31.22;102366.03;3616302;39;20183;-76
2021/04/03 09:36:42;;;;;;;6.80;2.70;;;;;;;10.96;30.26;102362.00;3624016;39;20195;-75
2021/04/03 09:39:19;;;;;;;7.97;2.60;;;;;;;11.02;30.20;102364.38;3621718;39;20075;-75
2021/04/03 09:41:49;;;;;;;7.78;3.15;;;;;;;11.07;30.54;102370.41;3616084;39;20079;-75
2021/04/03 09:44:17;;;;;;;8.52;2.60;;;;;;;11.15;30.42;102365.31;3615461;39;20091;-76
2021/04/03 09:46:48;;;;;;;7.28;2.78;;;;;;;11.18;30.64;102360.53;3617612;39;20075;-76
2021/04/03 09:49:17;;;;;;;5.97;2.33;;;;;;;11.27;30.68;102367.28;3606278;39;20437;-76
2021/04/03 09:51:44;;;;;;;6.93;2.80;;;;;;;11.32;30.72;102356.88;3617761;39;20268;-76
2021/04/03 09:54:11;;;;;;;6.68;3.05;;;;;;;11.40;30.58;102357.25;3614287;39;20063;-76
2021/04/03 09:56:39;;;;;;;7.78;3.58;;;;;;;11.48;30.58;102360.38;3618203;39;20079;-76
2021/04/03 09:59:06;;;;;;;8.55;3.22;;;;;;;11.54;30.79;102359.06;3617179;39;20071;-76
2021/04/03 10:01:37;;;;;;;9.23;3.70;;;;;;;11.62;30.18;102357.59;3623329;39;20076;-76
2021/04/03 10:04:04;;;;;;;6.68;2.92;;;;;;;11.68;30.40;102360.91;3620227;39;20439;-75
2021/04/03 10:06:32;;;;;;;5.95;3.00;;;;;;;11.72;30.49;102360.59;3618753;39;20090;-76
2021/04/03 10:08:59;;;;;;;6.88;2.88;;;;;;;11.77;30.37;102354.81;3623316;39;20186;-76
2021/04/03 10:11:27;;;;;;;9.60;3.20;;;;;;;11.77;30.03;102357.56;3625950;39;20102;-75
2021/04/03 10:13:54;;;;;;;9.98;3.25;;;;;;;11.78;30.03;102351.94;3616589;39;20082;-75
2021/04/03 10:16:22;;;;;;;6.47;3.30;;;;;;;11.81;30.16;102357.22;3621112;39;20176;-76
2021/04/03 10:18:50;;;;;;;7.57;3.38;;;;;;;11.85;29.76;102347.81;3615428;39;20090;-75
2021/04/03 10:21:17;;;;;;;8.07;3.30;;;;;;;11.86;30.18;102351.41;3612879;39;20074;-75
2021/04/03 10:23:45;;;;;;;6.15;2.83;;;;;;;11.88;30.21;102336.63;3618085;39;20094;-75
2021/04/03 10:26:12;;;;;;;7.03;3.13;;;;;;;11.93;30.32;102344.59;3620394;39;20169;-75
2021/04/03 10:28:40;;;;;;;6.28;3.08;;;;;;;11.95;29.99;102348.97;3615604;39;20095;-75
2021/04/03 10:31:07;;;;;;;5.28;2.67;;;;;;;11.98;30.16;102342.41;3620008;39;20094;-76
2021/04/03 10:33:36;;;;;;;7.90;3.00;;;;;;;12.03;30.33;102345.69;3616836;39;20162;-75
2021/04/03 10:36:05;;;;;;;8.00;3.15;;;;;;;12.11;30.24;102358.88;3602370;39;20331;-75
2021/04/03 10:38:34;;;;;;;5.13;2.72;;;;;;;12.16;30.26;102346.63;3617713;39;20311;-75
2021/04/03 10:41:03;;;;;;;8.13;3.35;;;;;;;12.22;30.05;102353.53;3618491;39;20071;-75
2021/04/03 10:43:32;;;;;;;9.38;3.80;;;;;;;12.27;29.94;102345.84;3624116;39;20059;-75
2021/04/03 10:45:59;;;;;;;6.78;3.67;;;;;;;12.28;30.03;102351.22;3619921;39;20071;-76
2021/04/03 10:48:26;;;;;;;7.28;3.78;;;;;;;12.31;29.88;102350.16;3625052;39;20075;-75
2021/04/03 10:50:54;;;;;;;6.68;3.30;;;;;;;12.34;29.81;102348.06;3617034;39;20078;-76
2021/04/03 10:53:23;;;;;;;6.45;3.05;;;;;;;12.38;29.89;102352.34;3621254;39;20075;-76
2021/04/03 10:55:50;;;;;;;7.07;3.13;;;;;;;12.41;30.01;102343.91;3622044;39;20082;-76
2021/04/03 10:58:18;;;;;;;7.95;2.97;;;;;;;12.47;30.15;102355.44;3619958;39;20174;-76
2021/04/03 11:00:48;;;;;;;10.23;4.18;;;;;;;12.51;30.20;102352.38;3609747;39;20083;-76
2021/04/03 11:03:15;;;;;;;7.38;3.60;;;;;;;12.59;29.93;102355.47;3619416;39;20110;-75
2021/04/03 11:05:42;;;;;;;7.85;4.45;;;;;;;12.65;29.85;102356.88;3616819;39;20067;-76
2021/04/03 11:08:11;;;;;;;8.55;3.97;;;;;;;12.71;29.92;102353.69;3616436;39;20072;-76
2021/04/03 11:10:40;;;;;;;6.80;3.88;;;;;;;12.77;29.73;102350.47;3615795;39;20407;-75
2021/04/03 11:13:07;;;;;;;8.60;4.88;;;;;;;12.80;29.79;102351.16;3620248;39;20094;-75
2021/04/03 11:15:34;;;;;;;10.02;4.53;;;;;;;12.89;29.82;102354.22;3618779;39;20090;-76
2021/04/03 11:18:03;;;;;;;8.07;4.65;;;;;;;12.94;29.85;102350.19;3620271;39;20125;-76
2021/04/03 11:20:30;;;;;;;9.23;4.55;;;;;;;13.01;29.60;102358.84;3615924;39;20076;-76
2021/04/03 11:22:58;;;;;;;7.63;3.92;;;;;;;13.09;29.85;102357.28;3620032;39;20098;-76
2021/04/03 11:25:25;;;;;;;10.30;5.38;;;;;;;13.14;29.85;102354.22;3623212;39;20074;-76
2021/04/03 11:27:55;;;;;;;9.95;5.38;;;;;;;13.23;29.33;102361.78;3618419;39;20210;-75
2021/04/03 11:30:23;;;;;;;8.95;5.75;;;;;;;13.27;29.29;102362.44;3619930;39;20191;-75
2021/04/03 11:32:52;;;;;;;10.73;5.80;;;;;;;13.28;29.06;102350.44;3617908;39;20164;-75
2021/04/03 11:35:22;;;;;;;9.07;5.10;;;;;;;13.32;28.74;102357.47;3605522;39;20184;-76
2021/04/03 11:37:49;;;;;;;9.93;5.45;;;;;;;13.31;28.89;102362.09;3617500;39;20118;-76
2021/04/03 11:40:18;;;;;;;11.48;5.93;;;;;;;13.33;28.88;102349.13;3614798;39;20164;-75
2021/04/03 11:42:52;;;;;;;11.50;6.38;;;;;;;13.32;28.85;102363.88;3617203;39;20213;-76
2021/04/03 11:45:21;;;;;;;11.00;5.47;;;;;;;13.33;28.54;102353.75;3606986;39;20462;-75
2021/04/03 11:47:49;;;;;;;10.73;4.97;;;;;;;13.31;28.82;102353.84;3608680;39;20075;-75